createdAt,value
2022-11-16T00:01:29.061Z,6.80
2022-11-16T00:04:03.655Z,6.80
2022-11-16T00:06:36.262Z,6.80
2022-11-16T00:09:23.854Z,6.80
2022-11-16T00:11:58.991Z,6.90
2022-11-16T00:14:34.286Z,6.80
2022-11-16T00:17:06.917Z,6.90
2022-11-16T00:19:39.754Z,6.80
2022-11-16T00:22:12.379Z,6.80
2022-11-16T00:24:45.562Z,6.90
2022-11-16T00:27:18.246Z,6.80
2022-11-16T00:29:51.095Z,6.80
2022-11-16T00:32:23.721Z,6.80
2022-11-16T00:34:56.590Z,6.80
2022-11-16T00:37:29.158Z,6.80
2022-11-16T00:40:02.254Z,6.80
2022-11-16T00:42:34.828Z,6.80
2022-11-16T00:45:08.431Z,6.80
2022-11-16T00:47:41.023Z,6.80
2022-11-16T00:50:13.966Z,6.80
2022-11-16T00:52:46.657Z,6.80
2022-11-16T00:55:19.527Z,6.80
2022-11-16T00:57:52.101Z,6.80
2022-11-16T01:00:24.949Z,6.80
2022-11-16T01:02:57.598Z,6.90
2022-11-16T01:05:30.543Z,6.80
2022-11-16T01:08:03.360Z,6.80
2022-11-16T01:10:39.386Z,6.90
2022-11-16T01:13:12.152Z,6.80
2022-11-16T01:15:48.502Z,6.90
2022-11-16T01:18:21.162Z,6.80
2022-11-16T01:20:54.434Z,6.80
2022-11-16T01:23:27.026Z,6.80
2022-11-16T01:26:02.721Z,6.80
2022-11-16T01:28:35.854Z,6.80
2022-11-16T01:31:10.366Z,6.90
2022-11-16T01:33:43.050Z,6.80
2022-11-16T01:36:16.087Z,6.80
2022-11-16T01:38:48.846Z,6.80
2022-11-16T01:41:24.294Z,6.80
2022-11-16T01:44:27.320Z,6.80
2022-11-16T01:47:01.032Z,6.80
2022-11-16T01:49:37.397Z,6.80
2022-11-16T01:52:21.622Z,6.80
2022-11-16T01:54:55.474Z,6.90
2022-11-16T01:57:34.027Z,6.90
2022-11-16T02:00:09.750Z,6.90
2022-11-16T02:02:42.855Z,6.90
2022-11-16T02:05:19.355Z,6.90
2022-11-16T02:08:39.697Z,6.90
2022-11-16T02:11:37.981Z,6.90
2022-11-16T02:14:23.676Z,6.90
2022-11-16T02:17:22.864Z,6.90
2022-11-16T02:20:16.205Z,6.90
2022-11-16T02:23:18.763Z,6.90
2022-11-16T02:26:12.096Z,6.90
2022-11-16T02:29:19.906Z,6.90
2022-11-16T02:32:08.402Z,6.80
2022-11-16T02:34:54.579Z,6.80
2022-11-16T02:37:32.018Z,6.80
2022-11-16T02:40:07.981Z,6.80
2022-11-16T02:42:47.725Z,6.70
2022-11-16T02:45:27.742Z,6.70
2022-11-16T02:48:05.821Z,6.70
2022-11-16T02:50:39.193Z,6.70
2022-11-16T02:53:11.927Z,6.70
2022-11-16T02:55:44.430Z,6.70
2022-11-16T02:58:26.149Z,6.80
2022-11-16T03:01:01.172Z,6.80
2022-11-16T03:03:57.691Z,6.80
2022-11-16T03:06:33.126Z,6.80
2022-11-16T03:09:13.186Z,6.90
2022-11-16T03:12:01.367Z,6.80
2022-11-16T03:14:49.363Z,6.90
2022-11-16T03:17:42.213Z,6.80
2022-11-16T03:20:27.056Z,6.80
2022-11-16T03:23:02.842Z,6.80
2022-11-16T03:25:52.612Z,6.80
2022-11-16T03:28:34.084Z,6.80
2022-11-16T03:31:34.731Z,6.70
2022-11-16T03:34:12.717Z,6.70
2022-11-16T03:36:48.625Z,6.70
2022-11-16T03:39:25.742Z,6.70
2022-11-16T03:42:00.851Z,6.70
2022-11-16T03:44:34.282Z,6.70
2022-11-16T03:47:07.153Z,6.70
2022-11-16T03:49:43.498Z,6.70
2022-11-16T03:52:17.448Z,6.70
2022-11-16T03:54:49.912Z,6.70
2022-11-16T03:57:22.624Z,6.80
2022-11-16T03:59:55.089Z,6.70
2022-11-16T04:02:27.841Z,6.80
2022-11-16T04:05:19.027Z,6.80
2022-11-16T04:08:10.842Z,6.70
2022-11-16T04:11:02.475Z,6.70
2022-11-16T04:13:54.547Z,6.70
2022-11-16T04:16:45.572Z,6.60
2022-11-16T04:19:36.980Z,6.60
2022-11-16T04:23:05.475Z,6.60
2022-11-16T04:25:39.898Z,6.50
2022-11-16T04:28:16.612Z,6.50
2022-11-16T04:31:15.555Z,6.50
2022-11-16T04:34:09.632Z,6.50
2022-11-16T04:37:01.213Z,6.50
2022-11-16T04:39:33.724Z,6.50
2022-11-16T04:42:19.938Z,6.50
2022-11-16T04:45:10.851Z,6.50
2022-11-16T04:47:43.676Z,6.50
2022-11-16T04:50:16.774Z,6.50
2022-11-16T04:52:49.624Z,6.50
2022-11-16T04:55:22.112Z,6.50
2022-11-16T04:57:55.048Z,6.60
2022-11-16T05:00:28.583Z,6.60
2022-11-16T05:03:02.917Z,6.60
2022-11-16T05:05:35.374Z,6.60
2022-11-16T05:08:09.404Z,6.60
2022-11-16T05:10:41.897Z,6.70
2022-11-16T05:13:14.909Z,6.60
2022-11-16T05:15:47.445Z,6.60
2022-11-16T05:18:20.219Z,6.60
2022-11-16T05:21:01.532Z,6.70
2022-11-16T05:23:52.701Z,6.70
2022-11-16T05:26:25.193Z,6.70
2022-11-16T05:28:57.921Z,6.70
2022-11-16T05:31:30.425Z,6.70
2022-11-16T05:34:03.485Z,6.70
2022-11-16T05:36:36.129Z,6.70
2022-11-16T05:39:09.088Z,6.70
2022-11-16T05:41:41.548Z,6.60
2022-11-16T05:44:15.509Z,6.70
2022-11-16T05:46:48.316Z,6.70
2022-11-16T05:49:21.176Z,6.60
2022-11-16T05:51:53.712Z,6.60
2022-11-16T05:54:26.563Z,6.60
2022-11-16T05:56:59.032Z,6.60
2022-11-16T05:59:31.906Z,6.70
2022-11-16T06:02:04.905Z,6.60
2022-11-16T06:04:37.730Z,6.60
2022-11-16T06:07:10.243Z,6.60
2022-11-16T06:09:44.118Z,6.60
2022-11-16T06:12:16.591Z,6.60
2022-11-16T06:14:49.378Z,6.60
2022-11-16T06:17:21.820Z,6.60
2022-11-16T06:19:54.662Z,6.60
2022-11-16T06:22:27.137Z,6.60
2022-11-16T06:24:59.920Z,6.60
2022-11-16T06:27:32.513Z,6.60
2022-11-16T06:30:05.937Z,6.60
2022-11-16T06:32:38.778Z,6.60
2022-11-16T06:35:11.536Z,6.60
2022-11-16T06:37:44.296Z,6.70
2022-11-16T06:40:17.629Z,6.70
2022-11-16T06:42:50.100Z,6.70
2022-11-16T06:45:23.461Z,6.80
2022-11-16T06:47:55.936Z,6.80
2022-11-16T06:50:29.014Z,6.80
2022-11-16T06:53:01.544Z,6.90
2022-11-16T06:55:34.429Z,6.80
2022-11-16T06:58:06.907Z,6.80
2022-11-16T07:00:39.885Z,6.90
2022-11-16T07:03:12.400Z,6.90
2022-11-16T07:05:45.373Z,6.90
2022-11-16T07:08:17.848Z,6.90
2022-11-16T07:10:50.583Z,6.90
2022-11-16T07:13:23.025Z,6.90
2022-11-16T07:16:04.550Z,6.90
2022-11-16T07:18:40.051Z,6.90
2022-11-16T07:21:15.171Z,6.90
2022-11-16T07:23:48.057Z,6.80
2022-11-16T07:26:21.081Z,6.90
2022-11-16T07:28:53.559Z,6.80
2022-11-16T07:31:26.631Z,6.90
2022-11-16T07:33:59.095Z,6.90
2022-11-16T07:36:31.900Z,6.90
2022-11-16T07:39:04.435Z,6.90
2022-11-16T07:41:42.515Z,6.90
2022-11-16T07:44:15.052Z,7.00
2022-11-16T07:46:48.618Z,7.00
2022-11-16T07:49:21.344Z,7.00
2022-11-16T07:51:54.107Z,7.00
2022-11-16T07:54:26.599Z,7.00
2022-11-16T07:56:59.463Z,6.90
2022-11-16T07:59:32.003Z,6.90
2022-11-16T08:02:04.829Z,6.90
2022-11-16T08:04:38.807Z,6.90
2022-11-16T08:07:11.630Z,6.90
2022-11-16T08:09:44.296Z,7.00
2022-11-16T08:12:17.402Z,7.00
2022-11-16T08:14:49.889Z,6.90
2022-11-16T08:17:22.939Z,7.00
2022-11-16T08:19:55.376Z,6.90
2022-11-16T08:22:28.119Z,6.80
2022-11-16T08:25:00.593Z,6.80
2022-11-16T08:27:33.536Z,6.80
2022-11-16T08:30:09.901Z,6.80
2022-11-16T08:32:43.414Z,6.80
2022-11-16T08:35:15.957Z,6.90
2022-11-16T08:37:48.782Z,6.90
2022-11-16T08:40:21.302Z,6.90
2022-11-16T08:42:57.162Z,7.00
2022-11-16T08:45:29.715Z,7.10
2022-11-16T08:48:04.352Z,7.10
2022-11-16T08:51:10.014Z,7.20
2022-11-16T08:53:29.893Z,7.20
2022-11-16T08:56:13.712Z,7.30
2022-11-16T08:58:47.486Z,7.40
2022-11-16T09:01:22.327Z,7.40
2022-11-16T09:03:55.773Z,7.50
2022-11-16T09:06:28.456Z,7.50
2022-11-16T09:09:01.724Z,7.50
2022-11-16T09:11:34.333Z,7.50
2022-11-16T09:14:07.044Z,7.60
2022-11-16T09:16:40.517Z,7.70
2022-11-16T09:19:13.304Z,7.70
2022-11-16T09:21:45.957Z,7.80
2022-11-16T09:24:18.736Z,7.90
2022-11-16T09:26:51.260Z,8.00
2022-11-16T09:29:24.320Z,8.00
2022-11-16T09:31:58.363Z,8.00
2022-11-16T09:34:31.061Z,8.00
2022-11-16T09:37:03.572Z,8.00
2022-11-16T09:39:36.586Z,8.10
2022-11-16T09:42:33.165Z,8.10
2022-11-16T09:45:28.936Z,8.00
2022-11-16T09:48:04.743Z,8.00
2022-11-16T09:50:46.847Z,8.00
2022-11-16T09:53:40.677Z,8.10
2022-11-16T09:56:22.542Z,8.30
2022-11-16T09:59:15.068Z,8.20
2022-11-16T10:01:58.537Z,8.30
2022-11-16T10:04:47.297Z,8.30
2022-11-16T10:07:41.616Z,8.40
2022-11-16T10:10:23.537Z,8.30
2022-11-16T10:13:01.528Z,8.20
2022-11-16T10:16:02.409Z,8.20
2022-11-16T10:18:57.876Z,8.20
2022-11-16T10:21:48.345Z,8.10
2022-11-16T10:24:47.460Z,8.00
2022-11-16T10:27:41.649Z,8.00
2022-11-16T10:30:21.937Z,7.80
2022-11-16T10:33:06.700Z,7.70
2022-11-16T10:35:53.651Z,7.70
2022-11-16T10:38:31.009Z,7.60
2022-11-16T10:41:23.756Z,7.60
2022-11-16T10:43:59.053Z,7.60
2022-11-16T10:46:46.839Z,7.60
2022-11-16T10:49:34.404Z,7.50
2022-11-16T10:52:07.343Z,7.50
2022-11-16T10:54:44.067Z,7.60
2022-11-16T10:57:17.895Z,7.60
2022-11-16T10:59:55.387Z,7.60
2022-11-16T11:02:36.302Z,7.60
2022-11-16T11:05:20.688Z,7.60
2022-11-16T11:08:02.185Z,7.60
2022-11-16T11:10:38.928Z,7.60
2022-11-16T11:13:11.617Z,7.60
2022-11-16T11:15:45.203Z,7.70
2022-11-16T11:18:24.051Z,7.70
2022-11-16T11:21:19.333Z,7.50
2022-11-16T11:24:06.032Z,7.50
2022-11-16T11:26:54.643Z,7.40
2022-11-16T11:29:31.607Z,7.40
2022-11-16T11:32:15.197Z,7.30
2022-11-16T11:34:53.907Z,7.30
2022-11-16T11:37:34.130Z,7.20
2022-11-16T11:40:09.681Z,7.10
2022-11-16T11:42:54.160Z,7.10
2022-11-16T11:46:04.158Z,7.10
2022-11-16T11:49:18.345Z,7.00
2022-11-16T11:51:52.216Z,7.00
2022-11-16T11:54:29.056Z,7.00
2022-11-16T11:57:03.245Z,6.90
2022-11-16T11:59:35.800Z,6.80
2022-11-16T12:02:29.420Z,6.80
2022-11-16T12:05:29.077Z,6.70
2022-11-16T12:08:12.598Z,6.70
2022-11-16T12:10:49.188Z,6.70
2022-11-16T12:13:38.894Z,6.70
2022-11-16T12:16:18.842Z,6.60
2022-11-16T12:19:28.750Z,6.70
2022-11-16T12:22:13.307Z,6.70
2022-11-16T12:25:14.901Z,6.70
2022-11-16T12:28:27.368Z,6.60
2022-11-16T12:31:15.263Z,6.60
2022-11-16T12:33:47.774Z,6.50
2022-11-16T12:36:36.192Z,6.60
2022-11-16T12:39:33.627Z,6.60
2022-11-16T12:42:17.092Z,6.60
2022-11-16T12:44:59.940Z,6.60
2022-11-16T12:47:50.426Z,6.50
2022-11-16T12:50:55.026Z,6.50
2022-11-16T12:53:30.874Z,6.50
2022-11-16T12:56:23.030Z,6.50
2022-11-16T12:58:55.710Z,6.50
2022-11-16T13:01:40.328Z,6.50
2022-11-16T13:04:16.338Z,6.40
2022-11-16T13:06:56.584Z,6.30
2022-11-16T13:09:33.195Z,6.30
2022-11-16T13:12:14.204Z,6.30
2022-11-16T13:14:48.907Z,6.20
2022-11-16T13:17:28.128Z,6.20
2022-11-16T13:20:40.585Z,6.00
2022-11-16T13:23:42.062Z,5.90
2022-11-16T13:26:24.507Z,5.80
2022-11-16T13:29:42.199Z,5.80
2022-11-16T13:32:34.957Z,5.80
2022-11-16T13:35:16.516Z,5.80
2022-11-16T13:37:51.656Z,5.80
2022-11-16T13:40:30.705Z,5.70
2022-11-16T13:43:12.851Z,5.70
2022-11-16T13:46:48.341Z,5.70
2022-11-16T13:49:40.965Z,5.60
2022-11-16T13:52:54.053Z,5.60
2022-11-16T13:55:22.838Z,5.50
2022-11-16T13:57:58.130Z,5.50
2022-11-16T14:00:33.417Z,5.40
2022-11-16T14:03:17.848Z,5.30
2022-11-16T14:05:52.049Z,5.30
2022-11-16T14:08:24.426Z,5.20
2022-11-16T14:10:57.178Z,5.20
2022-11-16T14:13:42.360Z,5.20
2022-11-16T14:16:19.378Z,5.20
2022-11-16T14:18:53.029Z,5.10
2022-11-16T14:21:52.866Z,5.00
2022-11-16T14:24:39.586Z,5.00
2022-11-16T14:27:33.270Z,5.10
2022-11-16T14:30:35.709Z,5.00
2022-11-16T14:33:16.467Z,5.00
2022-11-16T14:35:53.406Z,5.00
2022-11-16T14:38:45.694Z,5.00
2022-11-16T14:41:23.835Z,4.90
2022-11-16T14:43:58.566Z,4.90
2022-11-16T14:46:36.222Z,4.90
2022-11-16T14:49:14.977Z,4.90
2022-11-16T14:51:53.872Z,4.80
2022-11-16T14:54:37.061Z,4.80
2022-11-16T14:57:23.880Z,4.80
2022-11-16T15:00:32.278Z,4.70
2022-11-16T15:03:06.038Z,4.70
2022-11-16T15:05:39.265Z,4.70
2022-11-16T15:08:35.261Z,4.70
2022-11-16T15:11:22.321Z,4.60
2022-11-16T15:13:55.409Z,4.60
2022-11-16T15:16:28.200Z,4.60
2022-11-16T15:19:02.125Z,4.60
2022-11-16T15:21:34.947Z,4.70
2022-11-16T15:24:29.219Z,4.60
2022-11-16T15:27:26.319Z,4.60
2022-11-16T15:30:04.897Z,4.50
2022-11-16T15:32:44.533Z,4.60
2022-11-16T15:35:33.065Z,4.60
2022-11-16T15:38:25.854Z,4.50
2022-11-16T15:41:00.374Z,4.50
2022-11-16T15:43:45.110Z,4.40
2022-11-16T15:46:25.186Z,4.40
2022-11-16T15:48:59.050Z,4.30
2022-11-16T15:51:31.556Z,4.20
2022-11-16T15:54:52.756Z,4.20
2022-11-16T15:57:25.515Z,4.20
2022-11-16T15:59:58.385Z,4.20
2022-11-16T16:02:32.188Z,4.10
2022-11-16T16:05:05.311Z,4.10
2022-11-16T16:07:40.141Z,4.20
2022-11-16T16:10:17.908Z,4.10
2022-11-16T16:12:58.538Z,4.10
2022-11-16T16:15:34.190Z,4.10
2022-11-16T16:18:36.784Z,4.10
2022-11-16T16:21:10.995Z,4.10
2022-11-16T16:23:54.724Z,4.00
2022-11-16T16:26:27.464Z,4.00
2022-11-16T16:28:59.930Z,4.00
2022-11-16T16:31:32.755Z,4.00
2022-11-16T16:34:11.962Z,4.00
2022-11-16T16:36:44.695Z,4.00
2022-11-16T16:39:17.190Z,4.00
2022-11-16T16:41:49.968Z,4.10
2022-11-16T16:44:22.394Z,4.00
2022-11-16T16:46:55.121Z,4.00
2022-11-16T16:49:27.615Z,3.90
2022-11-16T16:52:00.667Z,3.90
2022-11-16T16:54:33.406Z,3.90
2022-11-16T16:57:06.169Z,3.80
2022-11-16T16:59:38.652Z,3.80
2022-11-16T17:02:12.383Z,3.80
2022-11-16T17:04:46.811Z,3.80
2022-11-16T17:07:19.853Z,3.90
2022-11-16T17:09:52.358Z,3.80
2022-11-16T17:12:25.103Z,3.80
2022-11-16T17:14:57.620Z,3.90
2022-11-16T17:17:31.511Z,3.90
2022-11-16T17:20:06.159Z,3.90
2022-11-16T17:22:38.904Z,3.90
2022-11-16T17:25:11.390Z,3.90
2022-11-16T17:27:44.134Z,3.90
2022-11-16T17:30:16.761Z,3.80
2022-11-16T17:32:49.541Z,3.90
2022-11-16T17:35:21.990Z,4.00
2022-11-16T17:37:54.745Z,3.90
2022-11-16T17:40:27.180Z,3.90
2022-11-16T17:42:59.889Z,3.90
2022-11-16T17:45:32.403Z,3.90
2022-11-16T17:48:05.575Z,3.90
2022-11-16T17:50:38.077Z,3.90
2022-11-16T17:53:13.432Z,3.90
2022-11-16T17:55:45.885Z,3.90
2022-11-16T17:58:18.623Z,3.90
2022-11-16T18:00:52.026Z,3.90
2022-11-16T18:03:25.308Z,3.90
2022-11-16T18:06:13.271Z,3.90
2022-11-16T18:08:46.466Z,3.90
2022-11-16T18:11:24.817Z,3.80
2022-11-16T18:14:00.628Z,3.90
2022-11-16T18:16:34.350Z,3.80
2022-11-16T18:19:07.413Z,3.80
2022-11-16T18:21:41.378Z,3.80
2022-11-16T18:24:14.407Z,3.80
2022-11-16T18:26:47.055Z,3.80
2022-11-16T18:29:22.305Z,3.80
2022-11-16T18:31:54.802Z,3.80
2022-11-16T18:34:28.686Z,3.80
2022-11-16T18:37:01.275Z,3.90
2022-11-16T18:39:34.172Z,3.80
2022-11-16T18:42:07.368Z,3.90
2022-11-16T18:44:40.159Z,3.80
2022-11-16T18:47:12.633Z,3.90
2022-11-16T18:49:45.465Z,3.90
2022-11-16T18:52:17.898Z,3.90
2022-11-16T18:54:50.642Z,3.90
2022-11-16T18:57:23.285Z,3.90
2022-11-16T18:59:56.042Z,3.90
2022-11-16T19:02:30.872Z,3.80
2022-11-16T19:05:04.212Z,3.90
2022-11-16T19:07:36.774Z,3.90
2022-11-16T19:10:12.773Z,3.90
2022-11-16T19:12:45.282Z,3.90
2022-11-16T19:15:18.067Z,3.90
2022-11-16T19:18:19.436Z,3.90
2022-11-16T19:20:43.235Z,3.90
2022-11-16T19:23:15.836Z,3.90
2022-11-16T19:25:48.564Z,3.90
2022-11-16T19:28:21.040Z,3.90
2022-11-16T19:30:53.776Z,3.90
2022-11-16T19:33:26.268Z,3.90
2022-11-16T19:35:59.241Z,3.90
2022-11-16T19:38:31.748Z,3.90
2022-11-16T19:41:05.128Z,3.90
2022-11-16T19:43:38.276Z,3.90
2022-11-16T19:46:16.658Z,3.90
2022-11-16T19:48:49.581Z,3.90
2022-11-16T19:51:31.160Z,3.90
2022-11-16T19:54:03.881Z,4.00
2022-11-16T19:56:36.975Z,3.90
2022-11-16T19:59:09.847Z,3.90
2022-11-16T20:01:42.635Z,3.90
2022-11-16T20:04:15.924Z,3.90
2022-11-16T20:06:48.825Z,3.90
2022-11-16T20:09:21.363Z,3.90
2022-11-16T20:11:55.184Z,3.90
2022-11-16T20:14:27.695Z,3.90
2022-11-16T20:17:01.009Z,3.90
2022-11-16T20:19:33.463Z,3.90
2022-11-16T20:22:06.225Z,3.90
2022-11-16T20:24:38.694Z,3.90
2022-11-16T20:27:11.508Z,3.90
2022-11-16T20:29:44.042Z,3.90
2022-11-16T20:32:16.758Z,3.90
2022-11-16T20:34:49.213Z,4.00
2022-11-16T20:37:22.149Z,4.00
2022-11-16T20:39:57.206Z,4.00
2022-11-16T20:42:30.228Z,4.00
2022-11-16T20:45:03.084Z,4.00
2022-11-16T20:47:36.100Z,4.00
2022-11-16T20:50:08.927Z,4.00
2022-11-16T20:52:43.689Z,4.00
2022-11-16T20:55:18.584Z,4.00
2022-11-16T20:57:51.320Z,4.00
2022-11-16T21:00:23.822Z,4.00
2022-11-16T21:02:56.686Z,4.00
2022-11-16T21:05:29.146Z,4.00
2022-11-16T21:08:01.910Z,4.00
2022-11-16T21:10:37.865Z,4.00
2022-11-16T21:13:32.821Z,4.00
2022-11-16T21:16:13.870Z,4.10
2022-11-16T21:18:46.873Z,4.00
2022-11-16T21:21:19.329Z,4.10
2022-11-16T21:23:52.452Z,4.10
2022-11-16T21:26:32.638Z,4.10
2022-11-16T21:29:05.419Z,4.10
2022-11-16T21:31:38.016Z,4.10
2022-11-16T21:34:10.821Z,4.20
2022-11-16T21:36:43.298Z,4.10
2022-11-16T21:39:16.108Z,4.20
2022-11-16T21:41:48.582Z,4.20
2022-11-16T21:44:21.328Z,4.10
2022-11-16T21:46:54.390Z,4.20
2022-11-16T21:49:27.159Z,4.20
2022-11-16T21:51:59.607Z,4.20
2022-11-16T21:54:47.632Z,4.20
2022-11-16T21:57:20.109Z,4.20
2022-11-16T21:59:52.936Z,4.20
2022-11-16T22:02:25.378Z,4.20
2022-11-16T22:05:16.587Z,4.20
2022-11-16T22:07:49.063Z,4.20
2022-11-16T22:10:21.841Z,4.20
2022-11-16T22:16:11.536Z,4.20
2022-11-16T22:18:44.231Z,4.20
2022-11-16T22:21:17.448Z,4.20
2022-11-16T22:23:50.083Z,4.20
2022-11-16T22:26:23.195Z,4.20
2022-11-16T22:28:55.895Z,4.20
2022-11-16T22:31:28.845Z,4.20
2022-11-16T22:34:01.431Z,4.20
2022-11-16T22:36:34.331Z,4.20
2022-11-16T22:39:06.893Z,4.20
2022-11-16T22:41:39.748Z,4.20
2022-11-16T22:44:12.314Z,4.20
2022-11-16T22:46:45.214Z,4.10
2022-11-16T22:49:17.867Z,4.20
2022-11-16T22:51:50.868Z,4.20
2022-11-16T22:54:28.470Z,4.10
2022-11-16T22:57:01.693Z,4.10
2022-11-16T22:59:34.254Z,4.10
2022-11-16T23:02:08.593Z,4.20
2022-11-16T23:04:41.202Z,4.10
2022-11-16T23:07:14.175Z,4.10
2022-11-16T23:09:46.822Z,4.10
2022-11-16T23:12:38.331Z,4.10
2022-11-16T23:15:45.832Z,4.10
2022-11-16T23:18:19.768Z,4.10
2022-11-16T23:21:10.729Z,4.10
2022-11-16T23:24:03.224Z,4.10
2022-11-16T23:26:54.353Z,4.10
2022-11-16T23:29:27.319Z,4.10
2022-11-16T23:31:59.906Z,4.10
2022-11-16T23:34:32.853Z,4.00
2022-11-16T23:37:06.952Z,4.00
2022-11-16T23:39:39.819Z,4.10
2022-11-16T23:42:31.023Z,4.00
2022-11-16T23:45:04.571Z,4.00
2022-11-16T23:47:37.128Z,4.00
2022-11-16T23:50:10.113Z,4.00
2022-11-16T23:52:42.760Z,4.00
2022-11-16T23:55:15.715Z,4.00
2022-11-16T23:57:48.302Z,3.90
